sensor_id;sensor_type;location;lat;lon;timestamp;temperature;humidity
65582;DHT22;52231;40.090;18.348;2023-07-16T00:02:14;25.30;81.80
65582;DHT22;52231;40.090;18.348;2023-07-16T00:04:43;25.30;81.80
65582;DHT22;52231;40.090;18.348;2023-07-16T00:07:11;25.20;81.90
65582;DHT22;52231;40.090;18.348;2023-07-16T00:09:40;25.20;82.00
65582;DHT22;52231;40.090;18.348;2023-07-16T00:12:08;25.20;82.00
65582;DHT22;52231;40.090;18.348;2023-07-16T00:14:37;25.10;82.30
65582;DHT22;52231;40.090;18.348;2023-07-16T00:17:05;25.10;82.40
65582;DHT22;52231;40.090;18.348;2023-07-16T00:19:34;25.10;82.50
65582;DHT22;52231;40.090;18.348;2023-07-16T00:22:07;25.10;82.40
65582;DHT22;52231;40.090;18.348;2023-07-16T00:24:38;25.10;82.50
65582;DHT22;52231;40.090;18.348;2023-07-16T00:27:12;25.10;82.60
65582;DHT22;52231;40.090;18.348;2023-07-16T00:29:42;25.00;82.60
65582;DHT22;52231;40.090;18.348;2023-07-16T00:32:17;25.00;82.60
65582;DHT22;52231;40.090;18.348;2023-07-16T00:34:48;24.90;82.70
65582;DHT22;52231;40.090;18.348;2023-07-16T00:37:25;24.90;82.80
65582;DHT22;52231;40.090;18.348;2023-07-16T00:39:54;24.90;82.90
65582;DHT22;52231;40.090;18.348;2023-07-16T00:42:27;24.90;83.20
65582;DHT22;52231;40.090;18.348;2023-07-16T00:45:02;24.80;83.30
65582;DHT22;52231;40.090;18.348;2023-07-16T00:47:33;24.80;83.40
65582;DHT22;52231;40.090;18.348;2023-07-16T00:50:06;24.80;83.40
65582;DHT22;52231;40.090;18.348;2023-07-16T00:52:38;24.80;83.60
65582;DHT22;52231;40.090;18.348;2023-07-16T00:55:09;24.80;83.70
65582;DHT22;52231;40.090;18.348;2023-07-16T00:57:40;24.80;83.90
65582;DHT22;52231;40.090;18.348;2023-07-16T01:00:16;24.80;83.90
65582;DHT22;52231;40.090;18.348;2023-07-16T01:02:47;24.80;83.90
65582;DHT22;52231;40.090;18.348;2023-07-16T01:05:20;24.70;83.90
65582;DHT22;52231;40.090;18.348;2023-07-16T01:07:59;24.70;84.00
65582;DHT22;52231;40.090;18.348;2023-07-16T01:10:39;24.70;83.90
65582;DHT22;52231;40.090;18.348;2023-07-16T01:13:11;24.60;84.00
65582;DHT22;52231;40.090;18.348;2023-07-16T01:15:50;24.60;84.20
65582;DHT22;52231;40.090;18.348;2023-07-16T01:18:25;24.60;84.30
65582;DHT22;52231;40.090;18.348;2023-07-16T01:21:00;24.50;84.20
65582;DHT22;52231;40.090;18.348;2023-07-16T01:32:07;24.50;84.50
65582;DHT22;52231;40.090;18.348;2023-07-16T01:39:31;24.40;84.60
65582;DHT22;52231;40.090;18.348;2023-07-16T01:42:04;24.30;84.80
65582;DHT22;52231;40.090;18.348;2023-07-16T01:44:33;24.30;84.70
65582;DHT22;52231;40.090;18.348;2023-07-16T01:49:56;24.20;84.90
65582;DHT22;52231;40.090;18.348;2023-07-16T01:52:26;24.20;85.00
65582;DHT22;52231;40.090;18.348;2023-07-16T01:54:58;24.20;84.90
65582;DHT22;52231;40.090;18.348;2023-07-16T01:57:29;24.20;85.00
65582;DHT22;52231;40.090;18.348;2023-07-16T01:59:59;24.10;85.00
65582;DHT22;52231;40.090;18.348;2023-07-16T02:02:34;24.20;85.20
65582;DHT22;52231;40.090;18.348;2023-07-16T02:05:05;24.10;85.20
65582;DHT22;52231;40.090;18.348;2023-07-16T02:07:38;24.10;85.30
65582;DHT22;52231;40.090;18.348;2023-07-16T02:10:09;24.10;85.30
65582;DHT22;52231;40.090;18.348;2023-07-16T02:12:38;24.10;85.40
65582;DHT22;52231;40.090;18.348;2023-07-16T02:15:10;24.10;85.50
65582;DHT22;52231;40.090;18.348;2023-07-16T02:17:45;24.00;85.40
65582;DHT22;52231;40.090;18.348;2023-07-16T02:20:19;24.00;85.50
65582;DHT22;52231;40.090;18.348;2023-07-16T02:22:47;24.00;85.40
65582;DHT22;52231;40.090;18.348;2023-07-16T02:25:16;23.90;85.50
65582;DHT22;52231;40.090;18.348;2023-07-16T02:27:46;23.90;85.70
65582;DHT22;52231;40.090;18.348;2023-07-16T02:30:15;23.90;85.90
65582;DHT22;52231;40.090;18.348;2023-07-16T02:32:44;23.90;86.10
65582;DHT22;52231;40.090;18.348;2023-07-16T02:35:12;23.90;86.20
65582;DHT22;52231;40.090;18.348;2023-07-16T02:37:41;23.80;86.20
65582;DHT22;52231;40.090;18.348;2023-07-16T02:40:09;23.80;86.20
65582;DHT22;52231;40.090;18.348;2023-07-16T02:42:37;23.80;86.30
65582;DHT22;52231;40.090;18.348;2023-07-16T02:45:06;23.80;86.30
65582;DHT22;52231;40.090;18.348;2023-07-16T02:47:36;23.80;86.30
65582;DHT22;52231;40.090;18.348;2023-07-16T02:50:04;23.70;86.40
65582;DHT22;52231;40.090;18.348;2023-07-16T02:52:33;23.70;86.30
65582;DHT22;52231;40.090;18.348;2023-07-16T02:55:02;23.70;86.40
65582;DHT22;52231;40.090;18.348;2023-07-16T02:57:30;23.70;86.30
65582;DHT22;52231;40.090;18.348;2023-07-16T02:59:59;23.60;86.50
65582;DHT22;52231;40.090;18.348;2023-07-16T03:02:28;23.60;86.60
65582;DHT22;52231;40.090;18.348;2023-07-16T03:04:56;23.60;86.70
65582;DHT22;52231;40.090;18.348;2023-07-16T03:07:25;23.60;86.70
65582;DHT22;52231;40.090;18.348;2023-07-16T03:09:53;23.60;86.70
65582;DHT22;52231;40.090;18.348;2023-07-16T03:12:22;23.50;86.80
65582;DHT22;52231;40.090;18.348;2023-07-16T03:14:50;23.50;86.80
65582;DHT22;52231;40.090;18.348;2023-07-16T03:17:22;23.50;86.90
65582;DHT22;52231;40.090;18.348;2023-07-16T03:19:50;23.50;86.80
65582;DHT22;52231;40.090;18.348;2023-07-16T03:22:18;23.50;86.80
65582;DHT22;52231;40.090;18.348;2023-07-16T03:24:48;23.50;86.80
65582;DHT22;52231;40.090;18.348;2023-07-16T03:27:17;23.40;86.90
65582;DHT22;52231;40.090;18.348;2023-07-16T03:29:48;23.40;86.80
65582;DHT22;52231;40.090;18.348;2023-07-16T03:32:18;23.40;87.00
65582;DHT22;52231;40.090;18.348;2023-07-16T03:34:47;23.40;87.00
65582;DHT22;52231;40.090;18.348;2023-07-16T03:37:16;23.40;87.10
65582;DHT22;52231;40.090;18.348;2023-07-16T03:39:49;23.40;87.30
65582;DHT22;52231;40.090;18.348;2023-07-16T03:42:18;23.50;87.40
65582;DHT22;52231;40.090;18.348;2023-07-16T03:44:46;23.50;87.60
65582;DHT22;52231;40.090;18.348;2023-07-16T03:47:15;23.60;87.70
65582;DHT22;52231;40.090;18.348;2023-07-16T03:49:44;23.60;87.70
65582;DHT22;52231;40.090;18.348;2023-07-16T03:52:12;23.70;87.70
65582;DHT22;52231;40.090;18.348;2023-07-16T03:54:40;23.80;87.70
65582;DHT22;52231;40.090;18.348;2023-07-16T03:57:08;23.80;87.60
65582;DHT22;52231;40.090;18.348;2023-07-16T03:59:37;24.00;87.60
65582;DHT22;52231;40.090;18.348;2023-07-16T04:02:06;24.10;87.30
65582;DHT22;52231;40.090;18.348;2023-07-16T04:04:34;24.20;86.90
65582;DHT22;52231;40.090;18.348;2023-07-16T04:07:03;24.30;86.70
65582;DHT22;52231;40.090;18.348;2023-07-16T04:09:32;24.30;86.30
65582;DHT22;52231;40.090;18.348;2023-07-16T04:12:00;24.40;86.00
65582;DHT22;52231;40.090;18.348;2023-07-16T04:14:28;24.60;85.70
65582;DHT22;52231;40.090;18.348;2023-07-16T04:16:57;24.70;85.50
65582;DHT22;52231;40.090;18.348;2023-07-16T04:19:28;24.80;85.20
65582;DHT22;52231;40.090;18.348;2023-07-16T04:21:56;25.00;85.00
65582;DHT22;52231;40.090;18.348;2023-07-16T04:24:24;25.60;84.30
65582;DHT22;52231;40.090;18.348;2023-07-16T04:26:55;26.40;82.60
65582;DHT22;52231;40.090;18.348;2023-07-16T04:29:23;27.30;79.60
65582;DHT22;52231;40.090;18.348;2023-07-16T04:31:52;28.30;76.50
65582;DHT22;52231;40.090;18.348;2023-07-16T04:34:20;29.10;73.50
65582;DHT22;52231;40.090;18.348;2023-07-16T04:36:48;29.90;70.90
65582;DHT22;52231;40.090;18.348;2023-07-16T04:39:17;30.60;68.00
65582;DHT22;52231;40.090;18.348;2023-07-16T04:41:45;31.20;66.00
65582;DHT22;52231;40.090;18.348;2023-07-16T04:44:13;31.60;64.20
65582;DHT22;52231;40.090;18.348;2023-07-16T04:46:41;32.10;62.40
65582;DHT22;52231;40.090;18.348;2023-07-16T04:49:09;32.40;61.00
65582;DHT22;52231;40.090;18.348;2023-07-16T04:51:38;32.80;59.80
65582;DHT22;52231;40.090;18.348;2023-07-16T04:54:06;33.00;59.00
65582;DHT22;52231;40.090;18.348;2023-07-16T04:56:34;33.30;58.60
65582;DHT22;52231;40.090;18.348;2023-07-16T04:59:03;33.40;57.90
65582;DHT22;52231;40.090;18.348;2023-07-16T05:01:31;33.40;57.10
65582;DHT22;52231;40.090;18.348;2023-07-16T05:04:00;33.30;57.70
65582;DHT22;52231;40.090;18.348;2023-07-16T05:06:28;33.20;57.50
65582;DHT22;52231;40.090;18.348;2023-07-16T05:08:57;33.20;57.90
65582;DHT22;52231;40.090;18.348;2023-07-16T05:11:25;33.10;57.90
65582;DHT22;52231;40.090;18.348;2023-07-16T05:13:54;33.00;58.30
65582;DHT22;52231;40.090;18.348;2023-07-16T05:16:24;32.80;58.10
65582;DHT22;52231;40.090;18.348;2023-07-16T05:18:52;32.90;58.10
65582;DHT22;52231;40.090;18.348;2023-07-16T05:21:21;32.90;57.90
65582;DHT22;52231;40.090;18.348;2023-07-16T05:23:49;32.90;57.70
65582;DHT22;52231;40.090;18.348;2023-07-16T05:26:17;33.10;57.40
65582;DHT22;52231;40.090;18.348;2023-07-16T05:28:45;33.20;56.60
65582;DHT22;52231;40.090;18.348;2023-07-16T05:31:13;33.30;55.90
65582;DHT22;52231;40.090;18.348;2023-07-16T05:33:42;33.40;55.40
65582;DHT22;52231;40.090;18.348;2023-07-16T05:36:10;33.60;54.10
65582;DHT22;52231;40.090;18.348;2023-07-16T05:38:38;33.80;54.20
65582;DHT22;52231;40.090;18.348;2023-07-16T05:41:07;34.00;52.80
65582;DHT22;52231;40.090;18.348;2023-07-16T05:43:35;34.10;52.30
65582;DHT22;52231;40.090;18.348;2023-07-16T05:46:03;34.30;51.30
65582;DHT22;52231;40.090;18.348;2023-07-16T05:48:33;34.60;50.30
65582;DHT22;52231;40.090;18.348;2023-07-16T05:51:01;34.80;49.70
65582;DHT22;52231;40.090;18.348;2023-07-16T05:53:30;34.80;48.40
65582;DHT22;52231;40.090;18.348;2023-07-16T05:55:58;34.80;47.50
65582;DHT22;52231;40.090;18.348;2023-07-16T05:58:26;34.60;46.60
65582;DHT22;52231;40.090;18.348;2023-07-16T06:00:55;34.30;46.90
65582;DHT22;52231;40.090;18.348;2023-07-16T06:03:23;34.00;47.70
65582;DHT22;52231;40.090;18.348;2023-07-16T06:10:43;34.50;46.20
65582;DHT22;52231;40.090;18.348;2023-07-16T06:13:11;34.50;46.00
65582;DHT22;52231;40.090;18.348;2023-07-16T06:15:39;34.70;44.90
65582;DHT22;52231;40.090;18.348;2023-07-16T06:18:07;34.80;44.00
65582;DHT22;52231;40.090;18.348;2023-07-16T06:20:36;34.80;43.70
65582;DHT22;52231;40.090;18.348;2023-07-16T06:23:04;34.80;43.80
65582;DHT22;52231;40.090;18.348;2023-07-16T06:25:32;35.00;43.40
65582;DHT22;52231;40.090;18.348;2023-07-16T06:28:00;35.10;43.50
65582;DHT22;52231;40.090;18.348;2023-07-16T06:30:29;35.20;42.70
65582;DHT22;52231;40.090;18.348;2023-07-16T06:33:00;35.30;43.50
65582;DHT22;52231;40.090;18.348;2023-07-16T06:35:31;35.10;43.10
65582;DHT22;52231;40.090;18.348;2023-07-16T06:37:59;35.00;43.90
65582;DHT22;52231;40.090;18.348;2023-07-16T06:40:29;35.20;42.30
65582;DHT22;52231;40.090;18.348;2023-07-16T06:42:58;35.40;42.10
65582;DHT22;52231;40.090;18.348;2023-07-16T06:45:26;35.50;41.90
65582;DHT22;52231;40.090;18.348;2023-07-16T06:47:54;35.50;41.80
65582;DHT22;52231;40.090;18.348;2023-07-16T06:50:22;35.40;41.70
65582;DHT22;52231;40.090;18.348;2023-07-16T06:52:50;35.20;42.80
65582;DHT22;52231;40.090;18.348;2023-07-16T06:55:19;35.30;43.50
65582;DHT22;52231;40.090;18.348;2023-07-16T06:57:47;35.50;42.80
65582;DHT22;52231;40.090;18.348;2023-07-16T07:00:15;35.90;41.90
65582;DHT22;52231;40.090;18.348;2023-07-16T07:02:43;36.10;39.80
65582;DHT22;52231;40.090;18.348;2023-07-16T07:05:11;36.10;39.40
65582;DHT22;52231;40.090;18.348;2023-07-16T07:07:40;36.10;39.30
65582;DHT22;52231;40.090;18.348;2023-07-16T07:10:08;36.40;38.90
65582;DHT22;52231;40.090;18.348;2023-07-16T07:12:36;36.40;39.00
65582;DHT22;52231;40.090;18.348;2023-07-16T07:15:06;36.70;37.90
65582;DHT22;52231;40.090;18.348;2023-07-16T07:17:35;37.10;37.30
65582;DHT22;52231;40.090;18.348;2023-07-16T07:20:04;37.10;36.80
65582;DHT22;52231;40.090;18.348;2023-07-16T07:22:32;37.30;36.50
65582;DHT22;52231;40.090;18.348;2023-07-16T07:25:00;37.40;35.90
65582;DHT22;52231;40.090;18.348;2023-07-16T07:27:29;37.30;34.20
65582;DHT22;52231;40.090;18.348;2023-07-16T07:29:57;37.10;34.90
65582;DHT22;52231;40.090;18.348;2023-07-16T07:32:25;37.30;34.70
65582;DHT22;52231;40.090;18.348;2023-07-16T07:34:55;37.80;34.50
65582;DHT22;52231;40.090;18.348;2023-07-16T07:37:23;37.80;33.60
65582;DHT22;52231;40.090;18.348;2023-07-16T07:39:52;37.70;32.40
65582;DHT22;52231;40.090;18.348;2023-07-16T07:42:23;37.40;32.30
65582;DHT22;52231;40.090;18.348;2023-07-16T07:44:53;37.40;32.60
65582;DHT22;52231;40.090;18.348;2023-07-16T07:47:22;37.50;32.90
65582;DHT22;52231;40.090;18.348;2023-07-16T07:49:53;37.90;32.80
65582;DHT22;52231;40.090;18.348;2023-07-16T07:52:27;37.90;31.40
65582;DHT22;52231;40.090;18.348;2023-07-16T07:54:55;37.40;32.50
65582;DHT22;52231;40.090;18.348;2023-07-16T07:57:24;37.30;33.30
65582;DHT22;52231;40.090;18.348;2023-07-16T07:59:52;37.20;32.90
65582;DHT22;52231;40.090;18.348;2023-07-16T08:02:24;37.10;32.90
65582;DHT22;52231;40.090;18.348;2023-07-16T08:04:54;37.10;32.30
65582;DHT22;52231;40.090;18.348;2023-07-16T08:07:23;37.20;31.90
65582;DHT22;52231;40.090;18.348;2023-07-16T08:09:51;37.40;32.00
65582;DHT22;52231;40.090;18.348;2023-07-16T08:12:19;37.50;32.00
65582;DHT22;52231;40.090;18.348;2023-07-16T08:14:48;37.50;31.90
65582;DHT22;52231;40.090;18.348;2023-07-16T08:17:16;37.30;32.70
65582;DHT22;52231;40.090;18.348;2023-07-16T08:19:44;37.30;33.20
65582;DHT22;52231;40.090;18.348;2023-07-16T08:22:12;37.40;32.40
65582;DHT22;52231;40.090;18.348;2023-07-16T08:24:41;37.80;32.30
65582;DHT22;52231;40.090;18.348;2023-07-16T08:27:09;38.30;31.70
65582;DHT22;52231;40.090;18.348;2023-07-16T08:29:37;38.30;31.40
65582;DHT22;52231;40.090;18.348;2023-07-16T08:32:05;38.40;31.50
65582;DHT22;52231;40.090;18.348;2023-07-16T08:34:33;38.60;30.90
65582;DHT22;52231;40.090;18.348;2023-07-16T08:37:02;38.40;30.50
65582;DHT22;52231;40.090;18.348;2023-07-16T08:39:31;38.30;30.70
65582;DHT22;52231;40.090;18.348;2023-07-16T08:41:59;38.10;31.70
65582;DHT22;52231;40.090;18.348;2023-07-16T08:44:29;38.00;31.90
65582;DHT22;52231;40.090;18.348;2023-07-16T08:46:58;37.90;32.20
65582;DHT22;52231;40.090;18.348;2023-07-16T08:49:30;37.90;31.70
65582;DHT22;52231;40.090;18.348;2023-07-16T08:52:00;38.20;31.70
65582;DHT22;52231;40.090;18.348;2023-07-16T08:54:29;38.40;30.80
65582;DHT22;52231;40.090;18.348;2023-07-16T08:56:57;38.50;30.50
65582;DHT22;52231;40.090;18.348;2023-07-16T08:59:27;38.40;30.50
65582;DHT22;52231;40.090;18.348;2023-07-16T09:01:56;38.40;30.00
65582;DHT22;52231;40.090;18.348;2023-07-16T09:04:25;38.40;29.70
65582;DHT22;52231;40.090;18.348;2023-07-16T09:06:54;38.70;30.20
65582;DHT22;52231;40.090;18.348;2023-07-16T09:09:23;38.70;29.10
65582;DHT22;52231;40.090;18.348;2023-07-16T09:11:51;38.60;29.90
65582;DHT22;52231;40.090;18.348;2023-07-16T09:14:20;38.60;30.10
65582;DHT22;52231;40.090;18.348;2023-07-16T09:16:53;38.40;30.20
65582;DHT22;52231;40.090;18.348;2023-07-16T09:19:21;38.70;30.20
65582;DHT22;52231;40.090;18.348;2023-07-16T09:21:52;38.60;30.10
65582;DHT22;52231;40.090;18.348;2023-07-16T09:24:20;38.70;30.40
65582;DHT22;52231;40.090;18.348;2023-07-16T09:26:52;38.80;30.30
65582;DHT22;52231;40.090;18.348;2023-07-16T09:29:21;39.10;29.70
65582;DHT22;52231;40.090;18.348;2023-07-16T09:31:56;39.20;29.40
65582;DHT22;52231;40.090;18.348;2023-07-16T09:34:27;39.40;28.10
65582;DHT22;52231;40.090;18.348;2023-07-16T09:36:57;39.50;27.00
65582;DHT22;52231;40.090;18.348;2023-07-16T09:39:26;39.70;26.90
65582;DHT22;52231;40.090;18.348;2023-07-16T09:41:55;39.80;26.70
65582;DHT22;52231;40.090;18.348;2023-07-16T09:44:26;39.60;26.10
65582;DHT22;52231;40.090;18.348;2023-07-16T09:46:54;39.30;26.80
65582;DHT22;52231;40.090;18.348;2023-07-16T09:49:23;39.10;27.50
65582;DHT22;52231;40.090;18.348;2023-07-16T09:51:52;39.40;27.10
65582;DHT22;52231;40.090;18.348;2023-07-16T09:54:24;39.70;27.20
65582;DHT22;52231;40.090;18.348;2023-07-16T09:56:56;39.90;26.10
65582;DHT22;52231;40.090;18.348;2023-07-16T09:59:30;40.10;26.10
65582;DHT22;52231;40.090;18.348;2023-07-16T10:01:59;40.30;24.20
65582;DHT22;52231;40.090;18.348;2023-07-16T10:04:39;40.30;25.00
65582;DHT22;52231;40.090;18.348;2023-07-16T10:07:21;40.40;24.80
65582;DHT22;52231;40.090;18.348;2023-07-16T10:09:55;40.80;24.90
65582;DHT22;52231;40.090;18.348;2023-07-16T10:12:26;40.70;24.70
65582;DHT22;52231;40.090;18.348;2023-07-16T10:14:55;40.30;23.90
65582;DHT22;52231;40.090;18.348;2023-07-16T10:17:31;40.10;25.10
65582;DHT22;52231;40.090;18.348;2023-07-16T10:25:10;41.90;22.70
65582;DHT22;52231;40.090;18.348;2023-07-16T10:27:38;41.80;22.40
65582;DHT22;52231;40.090;18.348;2023-07-16T10:30:07;41.80;22.50
65582;DHT22;52231;40.090;18.348;2023-07-16T10:32:35;41.90;22.60
65582;DHT22;52231;40.090;18.348;2023-07-16T10:35:05;42.00;22.70
65582;DHT22;52231;40.090;18.348;2023-07-16T10:37:34;42.00;22.20
65582;DHT22;52231;40.090;18.348;2023-07-16T10:40:03;42.00;22.80
65582;DHT22;52231;40.090;18.348;2023-07-16T10:42:32;42.30;21.90
65582;DHT22;52231;40.090;18.348;2023-07-16T10:45:03;42.20;22.20
65582;DHT22;52231;40.090;18.348;2023-07-16T10:47:34;42.20;21.80
65582;DHT22;52231;40.090;18.348;2023-07-16T10:50:08;42.40;22.00
65582;DHT22;52231;40.090;18.348;2023-07-16T10:52:37;42.30;20.90
65582;DHT22;52231;40.090;18.348;2023-07-16T10:55:08;42.20;22.50
65582;DHT22;52231;40.090;18.348;2023-07-16T10:57:36;42.20;22.70
65582;DHT22;52231;40.090;18.348;2023-07-16T11:00:05;42.10;21.50
65582;DHT22;52231;40.090;18.348;2023-07-16T11:02:33;41.90;22.50
65582;DHT22;52231;40.090;18.348;2023-07-16T11:05:03;41.70;22.20
65582;DHT22;52231;40.090;18.348;2023-07-16T11:07:31;42.10;22.60
65582;DHT22;52231;40.090;18.348;2023-07-16T11:09:59;42.40;21.60
65582;DHT22;52231;40.090;18.348;2023-07-16T11:12:30;42.10;21.80
65582;DHT22;52231;40.090;18.348;2023-07-16T11:14:59;42.10;20.80
65582;DHT22;52231;40.090;18.348;2023-07-16T11:17:27;42.00;22.60
65582;DHT22;52231;40.090;18.348;2023-07-16T11:19:56;42.10;22.70
65582;DHT22;52231;40.090;18.348;2023-07-16T11:22:27;42.40;22.10
65582;DHT22;52231;40.090;18.348;2023-07-16T11:24:56;42.50;21.00
65582;DHT22;52231;40.090;18.348;2023-07-16T11:27:30;42.30;22.30
65582;DHT22;52231;40.090;18.348;2023-07-16T11:30:00;42.30;22.10
65582;DHT22;52231;40.090;18.348;2023-07-16T11:32:33;41.90;22.90
65582;DHT22;52231;40.090;18.348;2023-07-16T11:35:06;41.90;23.50
65582;DHT22;52231;40.090;18.348;2023-07-16T11:37:36;42.40;22.90
65582;DHT22;52231;40.090;18.348;2023-07-16T11:40:07;42.40;22.00
65582;DHT22;52231;40.090;18.348;2023-07-16T11:42:39;42.20;22.50
65582;DHT22;52231;40.090;18.348;2023-07-16T11:45:19;42.20;23.10
65582;DHT22;52231;40.090;18.348;2023-07-16T11:47:48;42.50;22.60
65582;DHT22;52231;40.090;18.348;2023-07-16T11:50:16;42.30;22.20
65582;DHT22;52231;40.090;18.348;2023-07-16T11:52:59;42.80;22.50
65582;DHT22;52231;40.090;18.348;2023-07-16T11:55:28;42.60;22.00
65582;DHT22;52231;40.090;18.348;2023-07-16T11:57:56;42.40;22.20
65582;DHT22;52231;40.090;18.348;2023-07-16T12:00:25;42.10;22.60
65582;DHT22;52231;40.090;18.348;2023-07-16T12:02:53;42.00;22.20
65582;DHT22;52231;40.090;18.348;2023-07-16T12:05:22;42.20;22.10
65582;DHT22;52231;40.090;18.348;2023-07-16T12:08:04;42.00;22.80
65582;DHT22;52231;40.090;18.348;2023-07-16T12:10:32;42.30;22.00
65582;DHT22;52231;40.090;18.348;2023-07-16T12:13:01;42.30;22.50
65582;DHT22;52231;40.090;18.348;2023-07-16T12:15:29;42.20;22.60
65582;DHT22;52231;40.090;18.348;2023-07-16T12:17:57;42.20;22.30
65582;DHT22;52231;40.090;18.348;2023-07-16T12:20:25;42.70;22.20
65582;DHT22;52231;40.090;18.348;2023-07-16T12:22:54;42.40;22.00
65582;DHT22;52231;40.090;18.348;2023-07-16T12:25:22;42.10;22.50
65582;DHT22;52231;40.090;18.348;2023-07-16T12:27:50;42.20;22.40
65582;DHT22;52231;40.090;18.348;2023-07-16T12:30:20;42.00;22.30
65582;DHT22;52231;40.090;18.348;2023-07-16T12:32:48;41.90;23.30
65582;DHT22;52231;40.090;18.348;2023-07-16T12:35:17;41.70;22.80
65582;DHT22;52231;40.090;18.348;2023-07-16T12:37:45;41.80;23.10
65582;DHT22;52231;40.090;18.348;2023-07-16T12:40:13;41.90;22.70
65582;DHT22;52231;40.090;18.348;2023-07-16T12:42:41;41.40;22.90
65582;DHT22;52231;40.090;18.348;2023-07-16T12:45:10;41.10;23.10
65582;DHT22;52231;40.090;18.348;2023-07-16T12:47:38;41.10;23.40
65582;DHT22;52231;40.090;18.348;2023-07-16T12:50:07;41.10;23.00
65582;DHT22;52231;40.090;18.348;2023-07-16T12:52:35;41.20;22.80
65582;DHT22;52231;40.090;18.348;2023-07-16T12:55:04;41.00;23.60
65582;DHT22;52231;40.090;18.348;2023-07-16T12:57:34;41.00;23.30
65582;DHT22;52231;40.090;18.348;2023-07-16T13:00:05;40.80;23.80
65582;DHT22;52231;40.090;18.348;2023-07-16T13:02:34;40.80;24.40
65582;DHT22;52231;40.090;18.348;2023-07-16T13:05:03;40.90;24.50
65582;DHT22;52231;40.090;18.348;2023-07-16T13:07:31;40.80;23.50
65582;DHT22;52231;40.090;18.348;2023-07-16T13:09:59;40.60;23.80
65582;DHT22;52231;40.090;18.348;2023-07-16T13:12:35;40.40;23.90
65582;DHT22;52231;40.090;18.348;2023-07-16T13:15:03;40.30;23.80
65582;DHT22;52231;40.090;18.348;2023-07-16T13:17:32;40.40;24.00
65582;DHT22;52231;40.090;18.348;2023-07-16T13:20:01;40.10;23.60
65582;DHT22;52231;40.090;18.348;2023-07-16T13:22:29;39.50;23.60
65582;DHT22;52231;40.090;18.348;2023-07-16T13:24:57;39.20;25.00
65582;DHT22;52231;40.090;18.348;2023-07-16T13:27:26;39.20;24.70
65582;DHT22;52231;40.090;18.348;2023-07-16T13:29:55;39.10;24.90
65582;DHT22;52231;40.090;18.348;2023-07-16T13:32:23;39.10;24.70
65582;DHT22;52231;40.090;18.348;2023-07-16T13:34:51;38.80;25.00
65582;DHT22;52231;40.090;18.348;2023-07-16T13:37:20;38.70;26.10
65582;DHT22;52231;40.090;18.348;2023-07-16T13:42:48;38.90;25.70
65582;DHT22;52231;40.090;18.348;2023-07-16T13:45:17;38.80;25.80
65582;DHT22;52231;40.090;18.348;2023-07-16T13:47:45;38.80;26.70
65582;DHT22;52231;40.090;18.348;2023-07-16T13:50:13;39.00;26.40
65582;DHT22;52231;40.090;18.348;2023-07-16T13:52:42;39.00;24.60
65582;DHT22;52231;40.090;18.348;2023-07-16T13:55:10;38.90;24.70
65582;DHT22;52231;40.090;18.348;2023-07-16T13:57:39;39.00;24.70
65582;DHT22;52231;40.090;18.348;2023-07-16T14:00:09;39.00;24.50
65582;DHT22;52231;40.090;18.348;2023-07-16T14:02:38;38.90;25.00
65582;DHT22;52231;40.090;18.348;2023-07-16T14:05:08;38.70;26.00
65582;DHT22;52231;40.090;18.348;2023-07-16T14:07:41;38.40;24.30
65582;DHT22;52231;40.090;18.348;2023-07-16T14:10:11;38.30;25.50
65582;DHT22;52231;40.090;18.348;2023-07-16T14:12:39;37.90;26.70
65582;DHT22;52231;40.090;18.348;2023-07-16T14:15:08;37.90;25.60
65582;DHT22;52231;40.090;18.348;2023-07-16T14:17:36;37.90;26.20
65582;DHT22;52231;40.090;18.348;2023-07-16T14:20:05;37.90;26.20
65582;DHT22;52231;40.090;18.348;2023-07-16T14:22:34;37.80;26.00
65582;DHT22;52231;40.090;18.348;2023-07-16T14:25:05;37.70;26.60
65582;DHT22;52231;40.090;18.348;2023-07-16T14:27:34;37.60;26.60
65582;DHT22;52231;40.090;18.348;2023-07-16T14:30:03;37.60;26.10
65582;DHT22;52231;40.090;18.348;2023-07-16T14:32:33;37.40;27.40
65582;DHT22;52231;40.090;18.348;2023-07-16T14:35:02;37.40;27.70
65582;DHT22;52231;40.090;18.348;2023-07-16T14:37:32;37.40;27.40
65582;DHT22;52231;40.090;18.348;2023-07-16T14:40:00;37.50;27.90
65582;DHT22;52231;40.090;18.348;2023-07-16T14:42:29;37.40;27.40
65582;DHT22;52231;40.090;18.348;2023-07-16T14:44:59;37.20;27.80
65582;DHT22;52231;40.090;18.348;2023-07-16T14:47:27;37.10;28.30
65582;DHT22;52231;40.090;18.348;2023-07-16T14:49:55;37.10;28.30
65582;DHT22;52231;40.090;18.348;2023-07-16T14:52:24;36.90;29.20
65582;DHT22;52231;40.090;18.348;2023-07-16T14:54:52;36.80;28.90
65582;DHT22;52231;40.090;18.348;2023-07-16T14:57:20;36.80;29.30
65582;DHT22;52231;40.090;18.348;2023-07-16T14:59:49;36.70;28.10
65582;DHT22;52231;40.090;18.348;2023-07-16T15:02:17;36.60;29.20
65582;DHT22;52231;40.090;18.348;2023-07-16T15:04:46;36.50;28.90
65582;DHT22;52231;40.090;18.348;2023-07-16T15:07:15;36.60;28.50
65582;DHT22;52231;40.090;18.348;2023-07-16T15:09:43;36.60;28.90
65582;DHT22;52231;40.090;18.348;2023-07-16T15:12:11;36.70;29.20
65582;DHT22;52231;40.090;18.348;2023-07-16T15:14:40;36.60;29.10
65582;DHT22;52231;40.090;18.348;2023-07-16T15:17:08;36.50;29.70
65582;DHT22;52231;40.090;18.348;2023-07-16T15:19:37;36.30;29.40
65582;DHT22;52231;40.090;18.348;2023-07-16T15:22:05;36.20;29.70
65582;DHT22;52231;40.090;18.348;2023-07-16T15:24:34;36.10;30.20
65582;DHT22;52231;40.090;18.348;2023-07-16T15:27:03;36.00;30.50
65582;DHT22;52231;40.090;18.348;2023-07-16T15:29:34;35.90;29.90
65582;DHT22;52231;40.090;18.348;2023-07-16T15:32:03;35.90;30.30
65582;DHT22;52231;40.090;18.348;2023-07-16T15:34:31;35.80;30.60
65582;DHT22;52231;40.090;18.348;2023-07-16T15:36:59;35.80;30.80
65582;DHT22;52231;40.090;18.348;2023-07-16T15:39:28;35.60;30.20
65582;DHT22;52231;40.090;18.348;2023-07-16T15:41:56;35.40;29.70
65582;DHT22;52231;40.090;18.348;2023-07-16T15:44:25;35.30;30.40
65582;DHT22;52231;40.090;18.348;2023-07-16T15:46:53;35.20;28.50
65582;DHT22;52231;40.090;18.348;2023-07-16T15:49:24;35.30;30.20
65582;DHT22;52231;40.090;18.348;2023-07-16T15:51:52;35.30;30.80
65582;DHT22;52231;40.090;18.348;2023-07-16T15:54:20;35.30;30.50
65582;DHT22;52231;40.090;18.348;2023-07-16T15:56:49;35.10;29.40
65582;DHT22;52231;40.090;18.348;2023-07-16T15:59:17;35.10;30.10